createdAt,value
2023-03-22T00:01:55.569Z,7.93
2023-03-22T00:04:42.888Z,9.13
2023-03-22T00:07:28.292Z,9.93
2023-03-22T00:10:13.721Z,8.15
2023-03-22T00:13:00.322Z,8.55
2023-03-22T00:15:45.817Z,6.65
2023-03-22T00:18:31.774Z,7.97
2023-03-22T00:21:18.337Z,6.97
2023-03-22T00:24:04.218Z,8.00
2023-03-22T00:26:49.794Z,8.20
2023-03-22T00:29:35.443Z,6.68
2023-03-22T00:32:20.963Z,9.20
2023-03-22T00:35:07.518Z,6.95
2023-03-22T00:37:53.088Z,6.78
2023-03-22T00:40:38.900Z,10.43
2023-03-22T00:43:24.433Z,15.00
2023-03-22T00:46:11.423Z,7.18
2023-03-22T00:48:57.114Z,6.63
2023-03-22T00:51:42.469Z,4.85
2023-03-22T00:54:28.432Z,6.57
2023-03-22T00:57:14.547Z,7.53
2023-03-22T00:59:59.917Z,4.47
2023-03-22T01:02:45.482Z,4.43
2023-03-22T01:05:32.496Z,7.55
2023-03-22T01:08:18.279Z,5.10
2023-03-22T01:11:04.043Z,9.13
2023-03-22T01:13:49.931Z,10.48
2023-03-22T01:16:37.210Z,5.75
2023-03-22T01:19:23.824Z,8.27
2023-03-22T01:22:09.491Z,5.55
2023-03-22T01:24:54.933Z,11.10
2023-03-22T01:27:40.403Z,9.13
2023-03-22T01:30:25.804Z,6.13
2023-03-22T01:33:11.212Z,4.35
2023-03-22T01:35:56.938Z,3.97
2023-03-22T01:38:42.469Z,5.07
2023-03-22T01:41:28.065Z,5.53
2023-03-22T01:44:21.115Z,6.97
2023-03-22T01:47:10.923Z,8.00
2023-03-22T01:49:56.559Z,6.50
2023-03-22T01:52:42.044Z,7.30
2023-03-22T01:55:28.206Z,6.45
2023-03-22T01:58:16.576Z,6.40
2023-03-22T02:01:05.450Z,7.88
2023-03-22T02:03:58.702Z,11.07
2023-03-22T02:06:45.338Z,11.23
2023-03-22T02:09:30.764Z,7.78
2023-03-22T02:12:33.941Z,5.78
2023-03-22T02:15:29.858Z,7.15
2023-03-22T02:18:49.590Z,6.18
2023-03-22T02:22:13.291Z,4.93
2023-03-22T02:25:28.063Z,6.22
2023-03-22T02:28:49.245Z,4.70
2023-03-22T02:32:17.318Z,3.90
2023-03-22T02:36:26.256Z,4.53
2023-03-22T02:39:28.836Z,8.38
2023-03-22T02:42:50.503Z,3.38
2023-03-22T02:46:07.283Z,3.13
2023-03-22T02:49:02.502Z,5.60
2023-03-22T02:52:00.088Z,6.82
2023-03-22T02:55:29.638Z,14.65
2023-03-22T02:58:46.957Z,4.43
2023-03-22T03:01:55.926Z,3.75
2023-03-22T03:04:48.286Z,3.35
2023-03-22T03:07:34.924Z,3.50
2023-03-22T03:10:21.379Z,3.55
2023-03-22T03:13:13.761Z,2.75
2023-03-22T03:16:01.522Z,3.33
2023-03-22T03:19:14.073Z,5.35
2023-03-22T03:22:37.161Z,4.25
2023-03-22T03:25:51.615Z,3.97
2023-03-22T03:28:52.156Z,4.50
2023-03-22T03:31:51.633Z,3.08
2023-03-22T03:34:52.348Z,3.65
2023-03-22T03:37:51.420Z,12.75
2023-03-22T03:41:00.822Z,7.10
2023-03-22T03:43:48.466Z,5.18
2023-03-22T03:46:33.889Z,7.65
2023-03-22T03:49:20.750Z,6.63
2023-03-22T03:52:06.481Z,8.15
2023-03-22T03:54:52.585Z,5.57
2023-03-22T03:57:38.019Z,5.85
2023-03-22T04:00:23.665Z,5.43
2023-03-22T04:03:10.124Z,4.45
2023-03-22T04:05:55.591Z,4.72
2023-03-22T04:08:40.955Z,4.18
2023-03-22T04:11:26.368Z,5.72
2023-03-22T04:14:11.893Z,5.05
2023-03-22T04:16:57.456Z,6.07
2023-03-22T04:19:43.430Z,4.43
2023-03-22T04:22:28.811Z,5.53
2023-03-22T04:25:16.053Z,8.10
2023-03-22T04:28:01.966Z,6.00
2023-03-22T04:30:48.190Z,4.40
2023-03-22T04:33:33.727Z,3.92
2023-03-22T04:36:19.133Z,2.80
2023-03-22T04:39:10.057Z,4.68
2023-03-22T04:41:55.775Z,5.97
2023-03-22T04:44:41.186Z,10.55
2023-03-22T04:47:26.849Z,8.45
2023-03-22T04:50:12.719Z,5.55
2023-03-22T04:52:58.206Z,5.20
2023-03-22T04:55:43.532Z,3.25
2023-03-22T04:58:29.171Z,4.47
2023-03-22T05:01:18.219Z,9.63
2023-03-22T05:04:04.447Z,7.90
2023-03-22T05:06:50.190Z,9.15
2023-03-22T05:09:35.619Z,9.50
2023-03-22T05:12:21.063Z,8.00
2023-03-22T05:15:08.056Z,5.55
2023-03-22T05:17:54.067Z,3.97
2023-03-22T05:20:41.180Z,4.72
2023-03-22T05:23:27.011Z,3.80
2023-03-22T05:26:13.531Z,3.92
2023-03-22T05:28:59.246Z,2.83
2023-03-22T05:31:44.937Z,3.35
2023-03-22T05:34:30.490Z,3.40
2023-03-22T05:37:16.459Z,5.18
2023-03-22T05:40:02.594Z,6.65
2023-03-22T05:42:48.501Z,3.13
2023-03-22T05:45:36.879Z,6.00
2023-03-22T05:48:22.673Z,3.15
2023-03-22T05:51:12.418Z,2.75
2023-03-22T05:53:57.862Z,4.65
2023-03-22T05:56:43.659Z,9.45
2023-03-22T05:59:28.945Z,4.20
2023-03-22T06:02:14.518Z,7.93
2023-03-22T06:05:00.424Z,6.80
2023-03-22T06:07:45.779Z,6.95
2023-03-22T06:10:31.056Z,4.68
2023-03-22T06:13:17.506Z,6.45
2023-03-22T06:16:04.855Z,3.05
2023-03-22T06:18:50.764Z,3.72
2023-03-22T06:21:36.766Z,3.72
2023-03-22T06:24:22.477Z,3.67
2023-03-22T06:27:08.431Z,4.50
2023-03-22T06:29:53.860Z,7.18
2023-03-22T06:32:39.252Z,4.20
2023-03-22T06:35:24.918Z,4.45
2023-03-22T06:38:10.771Z,2.70
2023-03-22T06:40:56.547Z,7.20
2023-03-22T06:43:42.276Z,6.30
2023-03-22T06:46:27.680Z,3.85
2023-03-22T06:49:13.044Z,4.07
2023-03-22T06:51:58.428Z,4.03
2023-03-22T06:54:43.818Z,8.15
2023-03-22T06:57:29.204Z,5.07
2023-03-22T07:00:15.584Z,6.03
2023-03-22T07:03:01.184Z,2.05
2023-03-22T07:05:46.653Z,4.20
2023-03-22T07:08:32.442Z,4.07
2023-03-22T07:11:18.131Z,5.15
2023-03-22T07:14:03.711Z,3.08
2023-03-22T07:16:49.901Z,2.70
2023-03-22T07:19:36.026Z,3.83
2023-03-22T07:22:21.651Z,3.65
2023-03-22T07:25:07.757Z,3.83
2023-03-22T07:27:53.075Z,3.97
2023-03-22T07:30:40.019Z,3.33
2023-03-22T07:33:25.845Z,6.20
2023-03-22T07:36:12.133Z,3.17
2023-03-22T07:39:01.663Z,6.35
2023-03-22T07:41:47.419Z,5.82
2023-03-22T07:44:36.913Z,5.53
2023-03-22T07:47:39.539Z,3.92
2023-03-22T07:50:26.396Z,3.15
2023-03-22T07:53:12.681Z,1.95
2023-03-22T07:55:58.032Z,2.00
2023-03-22T07:58:43.641Z,3.47
2023-03-22T08:01:29.221Z,4.35
2023-03-22T08:04:14.508Z,4.35
2023-03-22T08:06:59.866Z,3.42
2023-03-22T08:09:45.976Z,3.65
2023-03-22T08:12:31.856Z,3.00
2023-03-22T08:15:17.249Z,2.72
2023-03-22T08:18:02.728Z,3.28
2023-03-22T08:20:56.567Z,4.03
2023-03-22T08:23:42.619Z,3.15
2023-03-22T08:26:28.670Z,2.97
2023-03-22T08:29:14.248Z,1.73
2023-03-22T08:31:59.832Z,4.72
2023-03-22T08:34:45.311Z,4.28
2023-03-22T08:37:30.777Z,1.92
2023-03-22T08:40:16.198Z,3.35
2023-03-22T08:43:01.584Z,6.82
2023-03-22T08:45:46.955Z,3.45
2023-03-22T08:48:32.595Z,5.45
2023-03-22T08:51:23.022Z,3.05
2023-03-22T08:54:09.076Z,3.80
2023-03-22T08:56:54.781Z,2.08
2023-03-22T08:59:40.465Z,2.85
2023-03-22T09:02:26.457Z,2.53
2023-03-22T09:05:12.444Z,3.33
2023-03-22T09:08:05.916Z,4.00
2023-03-22T09:10:52.416Z,3.33
2023-03-22T09:13:38.629Z,2.83
2023-03-22T09:16:24.326Z,2.80
2023-03-22T09:19:10.118Z,2.85
2023-03-22T09:21:56.056Z,1.40
2023-03-22T09:24:41.522Z,2.38
2023-03-22T09:27:26.753Z,2.15
2023-03-22T09:30:12.974Z,4.70
2023-03-22T09:32:59.036Z,2.40
2023-03-22T09:35:44.853Z,2.20
2023-03-22T09:38:30.512Z,1.25
2023-03-22T09:41:38.334Z,1.40
2023-03-22T09:44:50.264Z,0.80
2023-03-22T09:50:33.065Z,3.70
2023-03-22T09:53:21.464Z,1.20
2023-03-22T09:56:26.153Z,2.15
2023-03-22T09:59:52.760Z,1.30
2023-03-22T10:03:09.424Z,1.70
2023-03-22T10:06:20.884Z,1.40
2023-03-22T10:10:06.459Z,3.50
2023-03-22T10:13:31.161Z,1.58
2023-03-22T10:16:28.893Z,2.17
2023-03-22T10:19:28.100Z,2.03
2023-03-22T10:22:19.656Z,1.30
2023-03-22T10:25:08.690Z,1.13
2023-03-22T10:27:55.133Z,1.00
2023-03-22T10:30:43.139Z,1.45
2023-03-22T10:33:51.815Z,0.70
2023-03-22T10:36:40.776Z,1.60
2023-03-22T10:39:41.166Z,2.15
2023-03-22T10:42:30.360Z,1.20
2023-03-22T10:45:16.451Z,2.85
2023-03-22T10:48:19.184Z,0.82
2023-03-22T10:51:06.679Z,1.05
2023-03-22T10:53:55.635Z,0.68
2023-03-22T10:56:41.121Z,1.58
2023-03-22T10:59:46.919Z,0.93
2023-03-22T11:02:33.076Z,0.85
2023-03-22T11:05:30.239Z,1.35
2023-03-22T11:08:15.634Z,1.63
2023-03-22T11:11:02.668Z,1.85
2023-03-22T11:14:16.509Z,0.40
2023-03-22T11:17:24.419Z,1.48
2023-03-22T11:20:19.473Z,0.50
2023-03-22T11:23:05.956Z,0.80
2023-03-22T11:25:56.932Z,0.55
2023-03-22T11:28:50.987Z,0.68
2023-03-22T11:32:26.704Z,2.78
2023-03-22T11:35:22.725Z,1.23
2023-03-22T11:38:40.942Z,0.68
2023-03-22T11:41:31.075Z,1.17
2023-03-22T11:44:20.760Z,0.68
2023-03-22T11:47:08.783Z,1.60
2023-03-22T11:50:09.432Z,1.00
2023-03-22T11:52:55.819Z,1.58
2023-03-22T11:55:43.616Z,0.50
2023-03-22T11:59:14.367Z,1.10
2023-03-22T12:02:50.859Z,1.73
2023-03-22T12:05:44.409Z,0.75
2023-03-22T12:09:03.971Z,3.65
2023-03-22T12:12:19.644Z,6.05
2023-03-22T12:15:28.782Z,1.60
2023-03-22T12:18:38.443Z,1.77
2023-03-22T12:21:24.009Z,1.23
2023-03-22T12:24:31.605Z,0.50
2023-03-22T12:27:36.147Z,0.82
2023-03-22T12:30:33.619Z,0.95
2023-03-22T12:33:40.525Z,1.30
2023-03-22T12:36:47.769Z,0.85
2023-03-22T12:39:43.286Z,1.42
2023-03-22T12:43:00.318Z,0.30
2023-03-22T12:45:58.160Z,1.58
2023-03-22T12:49:01.280Z,0.20
2023-03-22T12:51:48.996Z,0.50
2023-03-22T12:54:35.777Z,1.02
2023-03-22T12:57:21.374Z,1.08
2023-03-22T13:00:15.242Z,0.30
2023-03-22T13:03:28.024Z,1.27
2023-03-22T13:06:43.039Z,0.93
2023-03-22T13:09:28.484Z,0.77
2023-03-22T13:12:17.102Z,1.05
2023-03-22T13:15:13.266Z,0.60
2023-03-22T13:18:00.149Z,0.60
2023-03-22T13:21:19.638Z,0.73
2023-03-22T13:24:08.264Z,0.47
2023-03-22T13:26:55.362Z,1.25
2023-03-22T13:29:41.766Z,0.90
2023-03-22T13:32:32.595Z,0.73
2023-03-22T13:35:54.413Z,2.03
2023-03-22T13:38:43.420Z,1.45
2023-03-22T13:41:35.143Z,1.40
2023-03-22T13:44:38.038Z,0.77
2023-03-22T13:47:40.582Z,0.98
2023-03-22T13:50:31.096Z,0.95
2023-03-22T13:53:28.840Z,1.65
2023-03-22T13:56:40.730Z,1.27
2023-03-22T13:59:26.190Z,0.93
2023-03-22T14:02:34.888Z,1.75
2023-03-22T14:05:24.697Z,1.27
2023-03-22T14:08:25.016Z,2.20
2023-03-22T14:11:36.640Z,1.45
2023-03-22T14:14:36.461Z,0.80
2023-03-22T14:18:03.048Z,1.60
2023-03-22T14:21:13.996Z,2.97
